sensor_id;sensor_type;location;lat;lon;timestamp;P1;durP1;ratioP1;P2;durP2;ratioP2
3779;SDS011;1905;52.482;9.802;2023-02-22T00:01:40;23.10;;;11.00;;
3779;SDS011;1905;52.482;9.802;2023-02-22T00:04:17;20.97;;;12.50;;
3779;SDS011;1905;52.482;9.802;2023-02-22T00:06:46;16.37;;;9.13;;
3779;SDS011;1905;52.482;9.802;2023-02-22T00:09:14;15.30;;;8.23;;
3779;SDS011;1905;52.482;9.802;2023-02-22T00:11:46;18.00;;;9.40;;
3779;SDS011;1905;52.482;9.802;2023-02-22T00:14:14;16.03;;;9.20;;
3779;SDS011;1905;52.482;9.802;2023-02-22T00:16:45;19.90;;;9.87;;
3779;SDS011;1905;52.482;9.802;2023-02-22T00:19:12;15.20;;;8.40;;
3779;SDS011;1905;52.482;9.802;2023-02-22T00:21:41;13.27;;;7.17;;
3779;SDS011;1905;52.482;9.802;2023-02-22T00:24:10;17.10;;;8.43;;
3779;SDS011;1905;52.482;9.802;2023-02-22T00:26:48;22.80;;;10.37;;
3779;SDS011;1905;52.482;9.802;2023-02-22T00:29:17;17.80;;;9.57;;
3779;SDS011;1905;52.482;9.802;2023-02-22T00:31:44;18.57;;;10.90;;
3779;SDS011;1905;52.482;9.802;2023-02-22T00:34:12;21.20;;;10.17;;
3779;SDS011;1905;52.482;9.802;2023-02-22T00:36:45;25.13;;;10.47;;
3779;SDS011;1905;52.482;9.802;2023-02-22T00:39:12;27.97;;;11.80;;
3779;SDS011;1905;52.482;9.802;2023-02-22T00:41:40;31.93;;;12.37;;
3779;SDS011;1905;52.482;9.802;2023-02-22T00:44:08;28.70;;;13.20;;
3779;SDS011;1905;52.482;9.802;2023-02-22T00:46:37;20.90;;;10.97;;
3779;SDS011;1905;52.482;9.802;2023-02-22T00:49:06;23.97;;;11.70;;
3779;SDS011;1905;52.482;9.802;2023-02-22T00:51:33;22.60;;;10.80;;
3779;SDS011;1905;52.482;9.802;2023-02-22T00:54:02;24.57;;;10.83;;
3779;SDS011;1905;52.482;9.802;2023-02-22T00:56:31;25.57;;;11.17;;
3779;SDS011;1905;52.482;9.802;2023-02-22T00:58:59;16.90;;;10.17;;
3779;SDS011;1905;52.482;9.802;2023-02-22T01:01:27;25.37;;;11.50;;
3779;SDS011;1905;52.482;9.802;2023-02-22T01:03:56;23.67;;;10.63;;
3779;SDS011;1905;52.482;9.802;2023-02-22T01:06:24;20.90;;;9.23;;
3779;SDS011;1905;52.482;9.802;2023-02-22T01:08:51;17.47;;;9.43;;
3779;SDS011;1905;52.482;9.802;2023-02-22T01:11:20;18.60;;;9.00;;
3779;SDS011;1905;52.482;9.802;2023-02-22T01:13:48;14.97;;;8.13;;
3779;SDS011;1905;52.482;9.802;2023-02-22T01:16:19;24.00;;;11.03;;
3779;SDS011;1905;52.482;9.802;2023-02-22T01:18:48;19.20;;;8.70;;
3779;SDS011;1905;52.482;9.802;2023-02-22T01:21:16;20.97;;;9.97;;
3779;SDS011;1905;52.482;9.802;2023-02-22T01:23:44;21.33;;;10.27;;
3779;SDS011;1905;52.482;9.802;2023-02-22T01:26:12;23.20;;;11.10;;
3779;SDS011;1905;52.482;9.802;2023-02-22T01:28:41;19.50;;;10.90;;
3779;SDS011;1905;52.482;9.802;2023-02-22T01:31:09;24.57;;;10.93;;
3779;SDS011;1905;52.482;9.802;2023-02-22T01:33:37;23.27;;;12.30;;
3779;SDS011;1905;52.482;9.802;2023-02-22T01:36:07;22.77;;;11.20;;
3779;SDS011;1905;52.482;9.802;2023-02-22T01:38:36;20.33;;;11.33;;
3779;SDS011;1905;52.482;9.802;2023-02-22T01:41:04;15.03;;;9.57;;
3779;SDS011;1905;52.482;9.802;2023-02-22T01:43:32;13.53;;;8.10;;
3779;SDS011;1905;52.482;9.802;2023-02-22T01:46:01;18.23;;;10.63;;
3779;SDS011;1905;52.482;9.802;2023-02-22T01:48:32;19.27;;;9.87;;
3779;SDS011;1905;52.482;9.802;2023-02-22T01:51:05;20.07;;;8.40;;
3779;SDS011;1905;52.482;9.802;2023-02-22T01:53:37;21.97;;;8.33;;
3779;SDS011;1905;52.482;9.802;2023-02-22T01:56:09;15.77;;;8.67;;
3779;SDS011;1905;52.482;9.802;2023-02-22T01:58:40;15.53;;;8.00;;
3779;SDS011;1905;52.482;9.802;2023-02-22T02:01:12;19.60;;;8.87;;
3779;SDS011;1905;52.482;9.802;2023-02-22T02:03:41;15.90;;;8.80;;
3779;SDS011;1905;52.482;9.802;2023-02-22T02:06:09;22.30;;;9.20;;
3779;SDS011;1905;52.482;9.802;2023-02-22T02:08:43;19.60;;;9.90;;
3779;SDS011;1905;52.482;9.802;2023-02-22T02:11:18;12.97;;;7.20;;
3779;SDS011;1905;52.482;9.802;2023-02-22T02:13:48;18.37;;;9.70;;
3779;SDS011;1905;52.482;9.802;2023-02-22T02:16:18;15.70;;;8.83;;
3779;SDS011;1905;52.482;9.802;2023-02-22T02:18:47;22.80;;;9.10;;
3779;SDS011;1905;52.482;9.802;2023-02-22T02:27:17;18.53;;;9.30;;
3779;SDS011;1905;52.482;9.802;2023-02-22T02:32:55;14.73;;;7.53;;
3779;SDS011;1905;52.482;9.802;2023-02-22T02:35:37;12.80;;;6.87;;
3779;SDS011;1905;52.482;9.802;2023-02-22T02:38:18;19.70;;;9.87;;
3779;SDS011;1905;52.482;9.802;2023-02-22T02:40:57;20.80;;;9.43;;
3779;SDS011;1905;52.482;9.802;2023-02-22T02:43:31;14.53;;;7.57;;
3779;SDS011;1905;52.482;9.802;2023-02-22T02:46:05;20.30;;;7.57;;
3779;SDS011;1905;52.482;9.802;2023-02-22T02:48:39;15.20;;;7.27;;
3779;SDS011;1905;52.482;9.802;2023-02-22T02:51:09;17.07;;;9.63;;
3779;SDS011;1905;52.482;9.802;2023-02-22T02:53:40;13.70;;;7.83;;
3779;SDS011;1905;52.482;9.802;2023-02-22T02:56:10;18.40;;;7.93;;
3779;SDS011;1905;52.482;9.802;2023-02-22T02:58:42;15.23;;;7.90;;
3779;SDS011;1905;52.482;9.802;2023-02-22T03:01:15;14.47;;;7.33;;
3779;SDS011;1905;52.482;9.802;2023-02-22T03:03:58;13.30;;;7.57;;
3779;SDS011;1905;52.482;9.802;2023-02-22T03:06:49;14.20;;;7.57;;
3779;SDS011;1905;52.482;9.802;2023-02-22T03:09:35;12.70;;;7.10;;
3779;SDS011;1905;52.482;9.802;2023-02-22T03:12:13;12.37;;;6.90;;
3779;SDS011;1905;52.482;9.802;2023-02-22T03:14:47;10.57;;;6.43;;
3779;SDS011;1905;52.482;9.802;2023-02-22T03:17:26;12.30;;;6.30;;
3779;SDS011;1905;52.482;9.802;2023-02-22T03:20:06;8.97;;;5.10;;
3779;SDS011;1905;52.482;9.802;2023-02-22T03:22:41;11.63;;;6.27;;
3779;SDS011;1905;52.482;9.802;2023-02-22T03:25:16;9.30;;;7.03;;
3779;SDS011;1905;52.482;9.802;2023-02-22T03:27:54;12.63;;;6.20;;
3779;SDS011;1905;52.482;9.802;2023-02-22T03:30:30;11.13;;;6.33;;
3779;SDS011;1905;52.482;9.802;2023-02-22T03:33:06;8.17;;;5.27;;
3779;SDS011;1905;52.482;9.802;2023-02-22T03:35:39;14.53;;;6.50;;
3779;SDS011;1905;52.482;9.802;2023-02-22T03:38:15;12.97;;;6.63;;
3779;SDS011;1905;52.482;9.802;2023-02-22T03:40:48;12.23;;;6.43;;
3779;SDS011;1905;52.482;9.802;2023-02-22T03:43:20;9.50;;;5.50;;
3779;SDS011;1905;52.482;9.802;2023-02-22T03:45:54;12.40;;;5.73;;
3779;SDS011;1905;52.482;9.802;2023-02-22T03:48:24;10.67;;;5.93;;
3779;SDS011;1905;52.482;9.802;2023-02-22T03:51:01;14.27;;;6.70;;
3779;SDS011;1905;52.482;9.802;2023-02-22T03:53:31;8.00;;;5.40;;
3779;SDS011;1905;52.482;9.802;2023-02-22T03:56:04;12.30;;;6.03;;
3779;SDS011;1905;52.482;9.802;2023-02-22T03:58:36;15.33;;;6.30;;
3779;SDS011;1905;52.482;9.802;2023-02-22T04:01:05;11.33;;;5.67;;
3779;SDS011;1905;52.482;9.802;2023-02-22T04:03:33;10.80;;;5.83;;
3779;SDS011;1905;52.482;9.802;2023-02-22T04:06:02;7.87;;;5.00;;
3779;SDS011;1905;52.482;9.802;2023-02-22T04:08:31;12.10;;;6.10;;
3779;SDS011;1905;52.482;9.802;2023-02-22T04:10:58;14.20;;;6.67;;
3779;SDS011;1905;52.482;9.802;2023-02-22T04:13:27;13.30;;;6.80;;
3779;SDS011;1905;52.482;9.802;2023-02-22T04:15:56;10.70;;;5.90;;
3779;SDS011;1905;52.482;9.802;2023-02-22T04:18:24;8.07;;;4.90;;
3779;SDS011;1905;52.482;9.802;2023-02-22T04:20:52;14.83;;;7.63;;
3779;SDS011;1905;52.482;9.802;2023-02-22T04:23:35;11.53;;;6.17;;
3779;SDS011;1905;52.482;9.802;2023-02-22T04:26:03;12.47;;;6.87;;
3779;SDS011;1905;52.482;9.802;2023-02-22T04:28:31;12.90;;;6.80;;
3779;SDS011;1905;52.482;9.802;2023-02-22T04:31:08;13.63;;;7.77;;
3779;SDS011;1905;52.482;9.802;2023-02-22T04:33:36;14.17;;;7.33;;
3779;SDS011;1905;52.482;9.802;2023-02-22T04:36:04;8.27;;;6.20;;
3779;SDS011;1905;52.482;9.802;2023-02-22T04:38:33;12.87;;;7.97;;
3779;SDS011;1905;52.482;9.802;2023-02-22T04:41:02;14.90;;;7.40;;
3779;SDS011;1905;52.482;9.802;2023-02-22T04:43:30;17.27;;;7.00;;
3779;SDS011;1905;52.482;9.802;2023-02-22T04:46:21;15.23;;;7.10;;
3779;SDS011;1905;52.482;9.802;2023-02-22T04:48:50;15.43;;;6.03;;
3779;SDS011;1905;52.482;9.802;2023-02-22T04:51:20;18.50;;;7.47;;
3779;SDS011;1905;52.482;9.802;2023-02-22T04:53:59;17.17;;;6.37;;
3779;SDS011;1905;52.482;9.802;2023-02-22T04:56:31;17.30;;;7.43;;
3779;SDS011;1905;52.482;9.802;2023-02-22T04:58:58;18.63;;;8.07;;
3779;SDS011;1905;52.482;9.802;2023-02-22T05:01:29;17.17;;;7.40;;
3779;SDS011;1905;52.482;9.802;2023-02-22T05:03:59;17.70;;;7.40;;
3779;SDS011;1905;52.482;9.802;2023-02-22T05:06:28;19.07;;;8.80;;
3779;SDS011;1905;52.482;9.802;2023-02-22T05:08:55;17.17;;;6.30;;
3779;SDS011;1905;52.482;9.802;2023-02-22T05:11:23;13.37;;;7.90;;
3779;SDS011;1905;52.482;9.802;2023-02-22T05:13:52;30.33;;;8.37;;
3779;SDS011;1905;52.482;9.802;2023-02-22T05:16:20;10.53;;;6.30;;
3779;SDS011;1905;52.482;9.802;2023-02-22T05:18:47;14.93;;;6.50;;
3779;SDS011;1905;52.482;9.802;2023-02-22T05:21:15;15.50;;;6.70;;
3779;SDS011;1905;52.482;9.802;2023-02-22T05:23:43;13.70;;;8.47;;
3779;SDS011;1905;52.482;9.802;2023-02-22T05:26:10;19.00;;;6.90;;
3779;SDS011;1905;52.482;9.802;2023-02-22T05:28:38;18.30;;;7.93;;
3779;SDS011;1905;52.482;9.802;2023-02-22T05:31:07;17.97;;;8.80;;
3779;SDS011;1905;52.482;9.802;2023-02-22T05:33:34;18.17;;;8.40;;
3779;SDS011;1905;52.482;9.802;2023-02-22T05:36:02;20.40;;;7.97;;
3779;SDS011;1905;52.482;9.802;2023-02-22T05:38:30;21.00;;;9.43;;
3779;SDS011;1905;52.482;9.802;2023-02-22T05:40:58;19.20;;;8.20;;
3779;SDS011;1905;52.482;9.802;2023-02-22T05:43:25;19.10;;;8.07;;
3779;SDS011;1905;52.482;9.802;2023-02-22T05:45:53;18.90;;;7.40;;
3779;SDS011;1905;52.482;9.802;2023-02-22T05:48:22;17.13;;;8.00;;
3779;SDS011;1905;52.482;9.802;2023-02-22T05:50:49;18.77;;;7.50;;
3779;SDS011;1905;52.482;9.802;2023-02-22T05:53:17;26.37;;;10.30;;
3779;SDS011;1905;52.482;9.802;2023-02-22T05:55:44;17.20;;;7.57;;
3779;SDS011;1905;52.482;9.802;2023-02-22T05:58:12;24.63;;;9.00;;
3779;SDS011;1905;52.482;9.802;2023-02-22T06:00:40;13.60;;;8.00;;
3779;SDS011;1905;52.482;9.802;2023-02-22T06:03:08;20.60;;;7.90;;
3779;SDS011;1905;52.482;9.802;2023-02-22T06:05:40;18.70;;;7.97;;
3779;SDS011;1905;52.482;9.802;2023-02-22T06:08:08;25.37;;;7.70;;
3779;SDS011;1905;52.482;9.802;2023-02-22T06:10:36;25.57;;;8.63;;
3779;SDS011;1905;52.482;9.802;2023-02-22T06:13:04;18.27;;;9.97;;
3779;SDS011;1905;52.482;9.802;2023-02-22T06:15:32;14.27;;;7.13;;
3779;SDS011;1905;52.482;9.802;2023-02-22T06:18:00;20.37;;;9.57;;
3779;SDS011;1905;52.482;9.802;2023-02-22T06:20:28;16.83;;;7.87;;
3779;SDS011;1905;52.482;9.802;2023-02-22T06:22:58;21.77;;;8.83;;
3779;SDS011;1905;52.482;9.802;2023-02-22T06:25:26;17.23;;;7.20;;
3779;SDS011;1905;52.482;9.802;2023-02-22T06:27:56;20.43;;;8.87;;
3779;SDS011;1905;52.482;9.802;2023-02-22T06:30:25;23.13;;;9.50;;
3779;SDS011;1905;52.482;9.802;2023-02-22T06:32:53;17.30;;;8.77;;
3779;SDS011;1905;52.482;9.802;2023-02-22T06:35:21;20.23;;;7.63;;
3779;SDS011;1905;52.482;9.802;2023-02-22T06:37:49;16.20;;;8.20;;
3779;SDS011;1905;52.482;9.802;2023-02-22T06:40:18;18.50;;;9.20;;
3779;SDS011;1905;52.482;9.802;2023-02-22T06:42:46;18.37;;;8.03;;
3779;SDS011;1905;52.482;9.802;2023-02-22T06:45:15;21.07;;;7.60;;
3779;SDS011;1905;52.482;9.802;2023-02-22T06:47:43;19.73;;;8.13;;
3779;SDS011;1905;52.482;9.802;2023-02-22T06:50:16;17.90;;;8.40;;
3779;SDS011;1905;52.482;9.802;2023-02-22T06:52:46;22.13;;;8.63;;
3779;SDS011;1905;52.482;9.802;2023-02-22T06:55:19;18.43;;;7.73;;
3779;SDS011;1905;52.482;9.802;2023-02-22T06:57:47;22.33;;;8.13;;
3779;SDS011;1905;52.482;9.802;2023-02-22T07:00:16;26.20;;;9.23;;
3779;SDS011;1905;52.482;9.802;2023-02-22T07:02:45;22.67;;;8.43;;
3779;SDS011;1905;52.482;9.802;2023-02-22T07:05:16;19.27;;;8.73;;
3779;SDS011;1905;52.482;9.802;2023-02-22T07:07:45;23.10;;;8.47;;
3779;SDS011;1905;52.482;9.802;2023-02-22T07:10:15;18.27;;;9.03;;
3779;SDS011;1905;52.482;9.802;2023-02-22T07:12:45;20.73;;;8.50;;
3779;SDS011;1905;52.482;9.802;2023-02-22T07:15:14;17.43;;;10.00;;
3779;SDS011;1905;52.482;9.802;2023-02-22T07:17:43;20.13;;;8.73;;
3779;SDS011;1905;52.482;9.802;2023-02-22T07:20:10;17.60;;;7.80;;
3779;SDS011;1905;52.482;9.802;2023-02-22T07:22:38;23.93;;;9.67;;
3779;SDS011;1905;52.482;9.802;2023-02-22T07:25:06;20.67;;;9.40;;
3779;SDS011;1905;52.482;9.802;2023-02-22T07:27:36;20.20;;;7.70;;
3779;SDS011;1905;52.482;9.802;2023-02-22T07:30:06;20.70;;;8.93;;
3779;SDS011;1905;52.482;9.802;2023-02-22T07:32:34;17.20;;;8.30;;
3779;SDS011;1905;52.482;9.802;2023-02-22T07:35:02;21.90;;;8.87;;
3779;SDS011;1905;52.482;9.802;2023-02-22T07:37:29;23.57;;;9.47;;
3779;SDS011;1905;52.482;9.802;2023-02-22T07:39:57;20.87;;;8.60;;
3779;SDS011;1905;52.482;9.802;2023-02-22T07:42:24;24.93;;;10.83;;
3779;SDS011;1905;52.482;9.802;2023-02-22T07:44:52;19.50;;;9.50;;
3779;SDS011;1905;52.482;9.802;2023-02-22T07:47:21;21.70;;;10.03;;
3779;SDS011;1905;52.482;9.802;2023-02-22T07:49:48;21.97;;;7.97;;
3779;SDS011;1905;52.482;9.802;2023-02-22T07:52:16;24.40;;;9.20;;
3779;SDS011;1905;52.482;9.802;2023-02-22T07:54:44;19.53;;;9.30;;
3779;SDS011;1905;52.482;9.802;2023-02-22T07:57:12;17.27;;;9.90;;
3779;SDS011;1905;52.482;9.802;2023-02-22T07:59:39;22.83;;;8.70;;
3779;SDS011;1905;52.482;9.802;2023-02-22T08:02:08;20.50;;;10.00;;
3779;SDS011;1905;52.482;9.802;2023-02-22T08:04:42;22.80;;;8.13;;
3779;SDS011;1905;52.482;9.802;2023-02-22T08:07:10;27.90;;;9.37;;
3779;SDS011;1905;52.482;9.802;2023-02-22T08:09:37;18.97;;;11.40;;
3779;SDS011;1905;52.482;9.802;2023-02-22T08:12:05;19.70;;;9.40;;
3779;SDS011;1905;52.482;9.802;2023-02-22T08:14:33;25.10;;;10.87;;
3779;SDS011;1905;52.482;9.802;2023-02-22T08:17:00;16.00;;;9.90;;
3779;SDS011;1905;52.482;9.802;2023-02-22T08:19:28;13.30;;;8.70;;
3779;SDS011;1905;52.482;9.802;2023-02-22T08:21:57;20.00;;;9.87;;
3779;SDS011;1905;52.482;9.802;2023-02-22T08:24:24;23.30;;;10.00;;
3779;SDS011;1905;52.482;9.802;2023-02-22T08:26:52;22.83;;;9.37;;
3779;SDS011;1905;52.482;9.802;2023-02-22T08:29:20;27.17;;;9.53;;
3779;SDS011;1905;52.482;9.802;2023-02-22T08:31:49;21.23;;;9.20;;
3779;SDS011;1905;52.482;9.802;2023-02-22T08:34:19;29.13;;;9.53;;
3779;SDS011;1905;52.482;9.802;2023-02-22T08:36:46;25.03;;;9.60;;
3779;SDS011;1905;52.482;9.802;2023-02-22T08:39:16;22.53;;;9.10;;
3779;SDS011;1905;52.482;9.802;2023-02-22T08:41:43;21.43;;;9.77;;
3779;SDS011;1905;52.482;9.802;2023-02-22T08:44:11;30.17;;;10.93;;
3779;SDS011;1905;52.482;9.802;2023-02-22T08:46:38;23.40;;;10.00;;
3779;SDS011;1905;52.482;9.802;2023-02-22T08:49:06;22.97;;;10.83;;
3779;SDS011;1905;52.482;9.802;2023-02-22T08:51:34;27.87;;;11.90;;
3779;SDS011;1905;52.482;9.802;2023-02-22T08:54:02;21.57;;;9.73;;
3779;SDS011;1905;52.482;9.802;2023-02-22T08:56:33;25.70;;;9.90;;
3779;SDS011;1905;52.482;9.802;2023-02-22T08:59:01;24.70;;;10.33;;
3779;SDS011;1905;52.482;9.802;2023-02-22T09:01:28;23.33;;;10.87;;
3779;SDS011;1905;52.482;9.802;2023-02-22T09:03:59;20.93;;;10.33;;
3779;SDS011;1905;52.482;9.802;2023-02-22T09:06:27;17.63;;;9.60;;
3779;SDS011;1905;52.482;9.802;2023-02-22T09:08:55;17.87;;;8.70;;
3779;SDS011;1905;52.482;9.802;2023-02-22T09:11:23;24.00;;;9.30;;
3779;SDS011;1905;52.482;9.802;2023-02-22T09:13:52;22.83;;;11.20;;
3779;SDS011;1905;52.482;9.802;2023-02-22T09:16:19;18.70;;;10.40;;
3779;SDS011;1905;52.482;9.802;2023-02-22T09:18:47;28.03;;;10.90;;
3779;SDS011;1905;52.482;9.802;2023-02-22T09:21:15;21.17;;;9.43;;
3779;SDS011;1905;52.482;9.802;2023-02-22T09:23:45;22.33;;;10.80;;
3779;SDS011;1905;52.482;9.802;2023-02-22T09:26:13;22.40;;;9.50;;
3779;SDS011;1905;52.482;9.802;2023-02-22T09:28:42;21.43;;;10.37;;
3779;SDS011;1905;52.482;9.802;2023-02-22T09:31:11;21.07;;;8.90;;
3779;SDS011;1905;52.482;9.802;2023-02-22T09:33:39;16.77;;;9.40;;
3779;SDS011;1905;52.482;9.802;2023-02-22T09:36:07;25.03;;;10.63;;
3779;SDS011;1905;52.482;9.802;2023-02-22T09:38:34;17.20;;;8.47;;
3779;SDS011;1905;52.482;9.802;2023-02-22T09:41:06;14.60;;;8.30;;
3779;SDS011;1905;52.482;9.802;2023-02-22T09:43:40;13.30;;;8.07;;
3779;SDS011;1905;52.482;9.802;2023-02-22T09:46:22;23.07;;;10.43;;
3779;SDS011;1905;52.482;9.802;2023-02-22T09:48:58;15.73;;;7.63;;
3779;SDS011;1905;52.482;9.802;2023-02-22T09:51:32;21.07;;;9.27;;
3779;SDS011;1905;52.482;9.802;2023-02-22T09:54:05;17.20;;;7.73;;
3779;SDS011;1905;52.482;9.802;2023-02-22T09:56:42;14.80;;;7.60;;
3779;SDS011;1905;52.482;9.802;2023-02-22T09:59:14;16.30;;;8.40;;
3779;SDS011;1905;52.482;9.802;2023-02-22T10:01:52;14.70;;;8.50;;
3779;SDS011;1905;52.482;9.802;2023-02-22T10:04:24;20.73;;;9.73;;
3779;SDS011;1905;52.482;9.802;2023-02-22T10:07:04;15.40;;;9.23;;
3779;SDS011;1905;52.482;9.802;2023-02-22T10:09:39;18.20;;;9.30;;
3779;SDS011;1905;52.482;9.802;2023-02-22T10:12:10;13.00;;;7.53;;
3779;SDS011;1905;52.482;9.802;2023-02-22T10:17:36;16.63;;;7.70;;
3779;SDS011;1905;52.482;9.802;2023-02-22T10:20:13;20.20;;;8.07;;
3779;SDS011;1905;52.482;9.802;2023-02-22T10:22:51;24.07;;;10.57;;
3779;SDS011;1905;52.482;9.802;2023-02-22T10:25:32;17.77;;;9.07;;
3779;SDS011;1905;52.482;9.802;2023-02-22T10:28:07;20.13;;;9.60;;
3779;SDS011;1905;52.482;9.802;2023-02-22T10:30:40;17.00;;;9.10;;
3779;SDS011;1905;52.482;9.802;2023-02-22T10:33:13;19.47;;;9.57;;
3779;SDS011;1905;52.482;9.802;2023-02-22T10:35:45;15.93;;;9.63;;
3779;SDS011;1905;52.482;9.802;2023-02-22T10:38:14;21.53;;;10.13;;
3779;SDS011;1905;52.482;9.802;2023-02-22T10:40:47;17.27;;;9.17;;
3779;SDS011;1905;52.482;9.802;2023-02-22T10:43:16;21.43;;;8.30;;
3779;SDS011;1905;52.482;9.802;2023-02-22T10:45:45;19.37;;;9.00;;
3779;SDS011;1905;52.482;9.802;2023-02-22T10:48:14;19.00;;;9.30;;
3779;SDS011;1905;52.482;9.802;2023-02-22T10:50:44;20.20;;;9.53;;
3779;SDS011;1905;52.482;9.802;2023-02-22T10:53:13;21.10;;;9.73;;
3779;SDS011;1905;52.482;9.802;2023-02-22T10:58:38;20.77;;;10.40;;
3779;SDS011;1905;52.482;9.802;2023-02-22T11:01:16;18.50;;;8.90;;
3779;SDS011;1905;52.482;9.802;2023-02-22T11:03:54;17.47;;;9.27;;
3779;SDS011;1905;52.482;9.802;2023-02-22T11:06:23;19.70;;;9.73;;
3779;SDS011;1905;52.482;9.802;2023-02-22T11:08:50;20.50;;;10.33;;
3779;SDS011;1905;52.482;9.802;2023-02-22T11:11:30;22.67;;;9.40;;
3779;SDS011;1905;52.482;9.802;2023-02-22T11:13:59;18.30;;;9.00;;
3779;SDS011;1905;52.482;9.802;2023-02-22T11:16:29;20.90;;;10.63;;
3779;SDS011;1905;52.482;9.802;2023-02-22T11:19:01;20.83;;;9.73;;
3779;SDS011;1905;52.482;9.802;2023-02-22T11:21:33;18.40;;;9.60;;
3779;SDS011;1905;52.482;9.802;2023-02-22T11:24:01;19.20;;;8.87;;
3779;SDS011;1905;52.482;9.802;2023-02-22T11:26:35;17.70;;;9.80;;
3779;SDS011;1905;52.482;9.802;2023-02-22T11:29:09;16.77;;;8.50;;
3779;SDS011;1905;52.482;9.802;2023-02-22T11:31:40;21.10;;;10.37;;
3779;SDS011;1905;52.482;9.802;2023-02-22T11:34:25;17.83;;;9.43;;
3779;SDS011;1905;52.482;9.802;2023-02-22T11:39:42;14.93;;;8.67;;
3779;SDS011;1905;52.482;9.802;2023-02-22T11:42:18;21.63;;;8.60;;
3779;SDS011;1905;52.482;9.802;2023-02-22T11:44:48;20.10;;;10.83;;
3779;SDS011;1905;52.482;9.802;2023-02-22T11:47:34;18.97;;;10.20;;
3779;SDS011;1905;52.482;9.802;2023-02-22T11:50:03;15.13;;;7.53;;
3779;SDS011;1905;52.482;9.802;2023-02-22T11:52:44;19.07;;;8.97;;
3779;SDS011;1905;52.482;9.802;2023-02-22T11:55:23;16.00;;;9.20;;
3779;SDS011;1905;52.482;9.802;2023-02-22T11:58:12;16.00;;;9.83;;
3779;SDS011;1905;52.482;9.802;2023-02-22T12:00:57;17.50;;;8.90;;
3779;SDS011;1905;52.482;9.802;2023-02-22T12:03:36;21.97;;;10.63;;
3779;SDS011;1905;52.482;9.802;2023-02-22T12:06:19;19.10;;;11.40;;
3779;SDS011;1905;52.482;9.802;2023-02-22T12:08:59;22.10;;;9.77;;
3779;SDS011;1905;52.482;9.802;2023-02-22T12:11:35;21.87;;;10.03;;
3779;SDS011;1905;52.482;9.802;2023-02-22T12:14:15;16.77;;;10.67;;
3779;SDS011;1905;52.482;9.802;2023-02-22T12:16:58;17.53;;;9.90;;
3779;SDS011;1905;52.482;9.802;2023-02-22T12:19:34;18.70;;;11.70;;
3779;SDS011;1905;52.482;9.802;2023-02-22T12:22:08;17.43;;;10.70;;
3779;SDS011;1905;52.482;9.802;2023-02-22T12:24:41;21.20;;;10.23;;
3779;SDS011;1905;52.482;9.802;2023-02-22T12:27:14;18.70;;;10.70;;
3779;SDS011;1905;52.482;9.802;2023-02-22T12:29:46;18.23;;;9.73;;
3779;SDS011;1905;52.482;9.802;2023-02-22T12:32:18;14.83;;;8.27;;
3779;SDS011;1905;52.482;9.802;2023-02-22T12:34:56;17.67;;;10.57;;
3779;SDS011;1905;52.482;9.802;2023-02-22T12:37:33;16.83;;;9.40;;
3779;SDS011;1905;52.482;9.802;2023-02-22T12:40:13;15.10;;;9.00;;
3779;SDS011;1905;52.482;9.802;2023-02-22T12:42:49;15.00;;;8.73;;
3779;SDS011;1905;52.482;9.802;2023-02-22T12:45:25;12.30;;;8.40;;
3779;SDS011;1905;52.482;9.802;2023-02-22T12:47:59;14.77;;;9.60;;
3779;SDS011;1905;52.482;9.802;2023-02-22T12:50:36;13.53;;;8.50;;
3779;SDS011;1905;52.482;9.802;2023-02-22T12:53:10;18.10;;;9.40;;
3779;SDS011;1905;52.482;9.802;2023-02-22T12:55:45;17.63;;;8.67;;
3779;SDS011;1905;52.482;9.802;2023-02-22T12:58:19;10.87;;;6.50;;
3779;SDS011;1905;52.482;9.802;2023-02-22T13:00:54;15.93;;;7.97;;
3779;SDS011;1905;52.482;9.802;2023-02-22T13:03:29;13.07;;;7.50;;
3779;SDS011;1905;52.482;9.802;2023-02-22T13:06:08;10.20;;;7.67;;
3779;SDS011;1905;52.482;9.802;2023-02-22T13:08:59;14.77;;;7.70;;
3779;SDS011;1905;52.482;9.802;2023-02-22T13:11:37;12.40;;;6.50;;
3779;SDS011;1905;52.482;9.802;2023-02-22T13:14:15;12.70;;;6.90;;
3779;SDS011;1905;52.482;9.802;2023-02-22T13:16:59;10.07;;;6.03;;
3779;SDS011;1905;52.482;9.802;2023-02-22T13:19:38;10.87;;;6.60;;
3779;SDS011;1905;52.482;9.802;2023-02-22T13:22:12;10.90;;;6.77;;
3779;SDS011;1905;52.482;9.802;2023-02-22T13:24:51;12.03;;;6.00;;
3779;SDS011;1905;52.482;9.802;2023-02-22T13:27:34;12.03;;;7.50;;
3779;SDS011;1905;52.482;9.802;2023-02-22T13:30:14;9.03;;;6.40;;
3779;SDS011;1905;52.482;9.802;2023-02-22T13:32:56;13.77;;;6.83;;
3779;SDS011;1905;52.482;9.802;2023-02-22T13:35:43;14.27;;;7.23;;
3779;SDS011;1905;52.482;9.802;2023-02-22T13:38:41;11.50;;;6.40;;
3779;SDS011;1905;52.482;9.802;2023-02-22T13:41:37;12.50;;;6.63;;
3779;SDS011;1905;52.482;9.802;2023-02-22T13:47:21;9.00;;;6.37;;
3779;SDS011;1905;52.482;9.802;2023-02-22T13:52:59;16.10;;;7.23;;
3779;SDS011;1905;52.482;9.802;2023-02-22T13:55:34;15.13;;;6.47;;
3779;SDS011;1905;52.482;9.802;2023-02-22T13:58:08;12.70;;;6.07;;
3779;SDS011;1905;52.482;9.802;2023-02-22T14:00:47;15.43;;;7.60;;
3779;SDS011;1905;52.482;9.802;2023-02-22T14:03:31;9.23;;;6.30;;
3779;SDS011;1905;52.482;9.802;2023-02-22T14:06:06;9.93;;;6.67;;
3779;SDS011;1905;52.482;9.802;2023-02-22T14:08:42;9.90;;;6.20;;
3779;SDS011;1905;52.482;9.802;2023-02-22T14:14:10;7.33;;;5.87;;
3779;SDS011;1905;52.482;9.802;2023-02-22T14:16:42;9.30;;;6.00;;
3779;SDS011;1905;52.482;9.802;2023-02-22T14:19:14;12.10;;;7.20;;
3779;SDS011;1905;52.482;9.802;2023-02-22T14:21:54;8.60;;;5.90;;
3779;SDS011;1905;52.482;9.802;2023-02-22T14:24:27;10.77;;;5.20;;
3779;SDS011;1905;52.482;9.802;2023-02-22T14:26:57;8.83;;;6.60;;
3779;SDS011;1905;52.482;9.802;2023-02-22T14:29:30;7.67;;;5.33;;
3779;SDS011;1905;52.482;9.802;2023-02-22T14:32:02;11.13;;;6.60;;
3779;SDS011;1905;52.482;9.802;2023-02-22T14:37:24;11.93;;;6.33;;
3779;SDS011;1905;52.482;9.802;2023-02-22T14:39:56;11.03;;;6.17;;
3779;SDS011;1905;52.482;9.802;2023-02-22T14:42:38;8.73;;;5.20;;
3779;SDS011;1905;52.482;9.802;2023-02-22T14:45:14;9.50;;;5.63;;
3779;SDS011;1905;52.482;9.802;2023-02-22T14:47:47;13.10;;;7.03;;
3779;SDS011;1905;52.482;9.802;2023-02-22T14:50:20;18.53;;;8.80;;
3779;SDS011;1905;52.482;9.802;2023-02-22T14:52:54;12.83;;;6.73;;
3779;SDS011;1905;52.482;9.802;2023-02-22T14:55:27;8.97;;;5.70;;
3779;SDS011;1905;52.482;9.802;2023-02-22T14:57:58;11.33;;;5.97;;
3779;SDS011;1905;52.482;9.802;2023-02-22T15:00:37;10.00;;;5.27;;
3779;SDS011;1905;52.482;9.802;2023-02-22T15:03:15;11.10;;;6.00;;
3779;SDS011;1905;52.482;9.802;2023-02-22T15:05:44;9.00;;;4.97;;
3779;SDS011;1905;52.482;9.802;2023-02-22T15:08:13;10.67;;;7.70;;
3779;SDS011;1905;52.482;9.802;2023-02-22T15:10:42;11.00;;;6.93;;
3779;SDS011;1905;52.482;9.802;2023-02-22T15:13:13;13.17;;;7.27;;
3779;SDS011;1905;52.482;9.802;2023-02-22T15:15:45;11.03;;;5.87;;
3779;SDS011;1905;52.482;9.802;2023-02-22T15:18:19;8.37;;;4.83;;
3779;SDS011;1905;52.482;9.802;2023-02-22T15:20:51;8.63;;;5.47;;
3779;SDS011;1905;52.482;9.802;2023-02-22T15:23:23;6.33;;;5.33;;
3779;SDS011;1905;52.482;9.802;2023-02-22T15:25:54;9.70;;;5.70;;
3779;SDS011;1905;52.482;9.802;2023-02-22T15:28:23;11.57;;;6.37;;
3779;SDS011;1905;52.482;9.802;2023-02-22T15:31:17;25.70;;;12.67;;
3779;SDS011;1905;52.482;9.802;2023-02-22T15:33:50;12.80;;;6.10;;
3779;SDS011;1905;52.482;9.802;2023-02-22T15:36:25;8.10;;;5.83;;
3779;SDS011;1905;52.482;9.802;2023-02-22T15:38:56;9.30;;;6.40;;
3779;SDS011;1905;52.482;9.802;2023-02-22T15:41:25;7.00;;;4.67;;
3779;SDS011;1905;52.482;9.802;2023-02-22T15:43:56;10.40;;;4.60;;
3779;SDS011;1905;52.482;9.802;2023-02-22T15:46:32;10.50;;;5.10;;
3779;SDS011;1905;52.482;9.802;2023-02-22T15:49:04;10.80;;;5.37;;
3779;SDS011;1905;52.482;9.802;2023-02-22T15:51:46;9.10;;;5.80;;
3779;SDS011;1905;52.482;9.802;2023-02-22T15:54:16;13.07;;;6.00;;
3779;SDS011;1905;52.482;9.802;2023-02-22T15:56:53;8.97;;;5.17;;
3779;SDS011;1905;52.482;9.802;2023-02-22T15:59:22;8.90;;;6.00;;